Time,TemperatureF,DewpointF,PressureIn,WindDirection,WindDirectionDegrees,WindSpeedMPH,WindSpeedGustMPH,Humidity,HourlyPrecipIn,Conditions,Clouds,dailyrainin,SolarRadiationWatts/m^2,SoftwareType,DateUTC
2013-07-11 00:02:00,62.0,60.0,-100.00,West,272,5.0,8.0,92,0.00,,,0.34,0.000000,,2013-07-11 04:02:00,
2013-07-11 00:12:00,62.0,60.0,-100.00,West,272,5.0,8.0,92,0.00,,,0.34,0.000000,,2013-07-11 04:12:00,
2013-07-11 00:43:00,62.0,61.0,-100.00,NE,35,2.0,8.0,97,0.00,,,0.34,0.000000,,2013-07-11 04:43:00,
2013-07-11 00:53:00,62.0,61.0,-100.00,NE,35,2.0,8.0,97,0.00,,,0.34,0.000000,,2013-07-11 04:53:00,
2013-07-11 01:02:00,62.0,61.0,-100.00,NE,35,2.0,8.0,97,0.00,,,0.34,0.000000,,2013-07-11 05:02:00,
2013-07-11 01:12:00,62.0,61.0,-100.00,NE,35,2.0,8.0,97,0.00,,,0.34,0.000000,,2013-07-11 05:12:00,
2013-07-11 01:43:00,61.0,60.0,-100.00,NE,37,4.0,7.0,97,0.00,,,0.34,0.000000,,2013-07-11 05:43:00,
2013-07-11 01:52:00,61.0,60.0,-100.00,NE,37,4.0,7.0,97,0.00,,,0.34,0.000000,,2013-07-11 05:52:00,
2013-07-11 02:01:00,61.0,60.0,-100.00,NE,37,4.0,7.0,97,0.00,,,0.34,0.000000,,2013-07-11 06:01:00,
2013-07-11 02:12:00,61.0,60.0,-100.00,NE,37,4.0,7.0,97,0.00,,,0.34,0.000000,,2013-07-11 06:12:00,
2013-07-11 02:43:00,61.0,60.0,-100.00,NNE,33,2.0,8.0,98,0.01,,,0.35,0.000000,,2013-07-11 06:43:00,
2013-07-11 02:53:00,61.0,60.0,-100.00,NNE,33,2.0,8.0,98,0.01,,,0.35,0.000000,,2013-07-11 06:53:00,
2013-07-11 03:02:00,61.0,60.0,-100.00,NNE,33,2.0,8.0,98,0.01,,,0.35,0.000000,,2013-07-11 07:02:00,
2013-07-11 03:12:00,61.0,60.0,-100.00,NNE,33,2.0,8.0,98,0.01,,,0.35,0.000000,,2013-07-11 07:12:00,
2013-07-11 03:45:00,61.0,60.0,-100.00,NE,37,4.0,10.0,98,0.00,,,0.35,0.000000,,2013-07-11 07:45:00,
2013-07-11 03:53:00,61.0,60.0,-100.00,NE,37,4.0,10.0,98,0.00,,,0.35,0.000000,,2013-07-11 07:53:00,
2013-07-11 04:02:00,61.0,60.0,-100.00,NE,37,4.0,10.0,98,0.00,,,0.35,0.000000,,2013-07-11 08:02:00,
2013-07-11 04:12:00,61.0,60.0,-100.00,NE,37,4.0,10.0,98,0.00,,,0.35,0.000000,,2013-07-11 08:12:00,
2013-07-11 04:43:00,61.0,60.0,-100.00,NE,36,6.0,12.0,98,0.00,,,0.35,0.000000,,2013-07-11 08:43:00,
2013-07-11 04:53:00,61.0,60.0,-100.00,NE,36,6.0,12.0,98,0.00,,,0.35,0.000000,,2013-07-11 08:53:00,
2013-07-11 05:03:00,61.0,60.0,-100.00,NE,36,6.0,12.0,98,0.00,,,0.35,0.000000,,2013-07-11 09:03:00,
2013-07-11 05:12:00,61.0,60.0,-100.00,NE,36,6.0,12.0,98,0.00,,,0.35,0.000000,,2013-07-11 09:12:00,
2013-07-11 05:43:00,61.0,60.0,-100.00,NE,36,4.0,12.0,98,0.00,,,0.35,0.000000,,2013-07-11 09:43:00,
2013-07-11 05:53:00,61.0,60.0,-100.00,NE,36,4.0,12.0,98,0.00,,,0.35,0.000000,,2013-07-11 09:53:00,
2013-07-11 06:01:00,61.0,60.0,-100.00,NE,36,4.0,12.0,98,0.00,,,0.35,0.000000,,2013-07-11 10:01:00,
2013-07-11 06:12:00,61.0,60.0,-100.00,NE,36,4.0,12.0,98,0.00,,,0.35,0.000000,,2013-07-11 10:12:00,
2013-07-11 06:43:00,61.0,61.0,-100.00,NNE,30,4.0,9.0,99,0.00,,,0.34,1.000000,,2013-07-11 10:43:00,
2013-07-11 06:52:00,61.0,61.0,-100.00,NNE,30,4.0,9.0,99,0.00,,,0.34,1.000000,,2013-07-11 10:52:00,
2013-07-11 07:02:00,61.0,61.0,-100.00,NNE,30,4.0,9.0,99,0.00,,,0.34,1.000000,,2013-07-11 11:02:00,
2013-07-11 07:12:00,61.0,61.0,-100.00,NNE,30,4.0,9.0,99,0.00,,,0.34,1.000000,,2013-07-11 11:12:00,
2013-07-11 07:43:00,62.0,61.0,-100.00,NE,38,4.0,10.0,98,0.00,,,-99.99,18.000000,,2013-07-11 11:43:00,
2013-07-11 07:53:00,62.0,61.0,-100.00,NE,38,4.0,10.0,98,0.00,,,-99.99,18.000000,,2013-07-11 11:53:00,
2013-07-11 08:01:00,62.0,61.0,-100.00,NE,38,4.0,10.0,98,0.00,,,-99.99,18.000000,,2013-07-11 12:01:00,
2013-07-11 08:12:00,62.0,61.0,-100.00,NE,38,4.0,10.0,98,0.00,,,-99.99,18.000000,,2013-07-11 12:12:00,
2013-07-11 08:43:00,63.0,62.0,-100.00,NE,40,6.0,11.0,98,0.00,,,-99.99,107.000000,,2013-07-11 12:43:00,
2013-07-11 08:57:00,63.0,62.0,-100.00,NE,40,6.0,11.0,98,0.00,,,-99.99,107.000000,,2013-07-11 12:57:00,
2013-07-11 09:03:00,63.0,62.0,-100.00,NE,40,6.0,11.0,98,0.00,,,-99.99,107.000000,,2013-07-11 13:03:00,
2013-07-11 09:14:00,63.0,62.0,-100.00,NE,40,6.0,11.0,98,0.00,,,-99.99,107.000000,,2013-07-11 13:14:00,
2013-07-11 09:47:00,65.0,61.0,-100.00,North,9,4.0,11.0,88,0.00,,,-99.99,294.000000,,2013-07-11 13:47:00,
2013-07-11 09:55:00,65.0,61.0,-100.00,North,9,4.0,11.0,88,0.00,,,-99.99,294.000000,,2013-07-11 13:55:00,
2013-07-11 10:05:00,65.0,61.0,-100.00,North,9,4.0,11.0,88,0.00,,,-99.99,294.000000,,2013-07-11 14:05:00,
2013-07-11 10:15:00,65.0,61.0,-100.00,North,9,4.0,11.0,88,0.00,,,-99.99,294.000000,,2013-07-11 14:15:00,
2013-07-11 10:47:00,68.0,60.0,-100.00,North,6,5.0,11.0,75,0.00,,,0.27,570.000000,,2013-07-11 14:47:00,
2013-07-11 10:55:00,68.0,60.0,-100.00,North,6,5.0,11.0,75,0.00,,,0.27,570.000000,,2013-07-11 14:55:00,
2013-07-11 11:06:00,68.0,60.0,-100.00,North,6,5.0,11.0,75,0.00,,,0.27,570.000000,,2013-07-11 15:06:00,
2013-07-11 11:15:00,68.0,60.0,-100.00,North,6,5.0,11.0,75,0.00,,,0.27,570.000000,,2013-07-11 15:15:00,
2013-07-11 11:48:00,70.0,59.0,-100.00,NNE,19,7.0,11.0,67,0.00,,,0.27,736.000000,,2013-07-11 15:48:00,
2013-07-11 11:59:00,70.0,59.0,-100.00,NNE,19,7.0,11.0,67,0.00,,,0.27,736.000000,,2013-07-11 15:59:00,
2013-07-11 12:06:00,70.0,59.0,-100.00,NNE,19,7.0,11.0,67,0.00,,,0.27,736.000000,,2013-07-11 16:06:00,
2013-07-11 12:15:00,70.0,59.0,-100.00,NNE,19,7.0,11.0,67,0.00,,,0.27,736.000000,,2013-07-11 16:15:00,
2013-07-11 12:16:00,71.0,56.0,-100.00,NE,37,7.0,14.0,60,0.00,,,0.27,840.000000,,2013-07-11 16:16:00,
2013-07-11 12:49:00,71.0,56.0,-100.00,NE,37,7.0,14.0,60,0.00,,,0.27,840.000000,,2013-07-11 16:49:00,
2013-07-11 12:56:00,71.0,56.0,-100.00,NE,37,7.0,14.0,60,0.00,,,0.27,840.000000,,2013-07-11 16:56:00,
2013-07-11 13:03:00,71.0,56.0,-100.00,NE,37,7.0,14.0,60,0.00,,,0.27,840.000000,,2013-07-11 17:03:00,
2013-07-11 13:16:00,74.0,58.0,-100.00,NNE,23,6.0,13.0,57,0.00,,,0.27,840.000000,,2013-07-11 17:16:00,
2013-07-11 13:50:00,74.0,58.0,-100.00,NNE,23,6.0,13.0,57,0.00,,,0.27,840.000000,,2013-07-11 17:50:00,
2013-07-11 13:57:00,74.0,58.0,-100.00,NNE,23,6.0,13.0,57,0.00,,,0.27,840.000000,,2013-07-11 17:57:00,
2013-07-11 14:49:00,76.0,55.0,-100.00,North,11,6.0,14.0,48,0.00,,,0.27,883.000000,,2013-07-11 18:49:00,
2013-07-11 14:56:00,76.0,55.0,-100.00,North,11,6.0,14.0,48,0.00,,,0.27,883.000000,,2013-07-11 18:56:00,
2013-07-11 15:05:00,76.0,55.0,-100.00,North,11,6.0,14.0,48,0.00,,,0.27,883.000000,,2013-07-11 19:05:00,
2013-07-11 15:13:00,76.0,55.0,-100.00,North,11,6.0,14.0,48,0.00,,,0.27,883.000000,,2013-07-11 19:13:00,
2013-07-11 15:47:00,74.0,54.0,-100.00,NE,36,6.0,11.0,50,0.00,,,0.27,727.000000,,2013-07-11 19:47:00,
2013-07-11 15:58:00,74.0,54.0,-100.00,NE,36,6.0,11.0,50,0.00,,,0.27,727.000000,,2013-07-11 19:58:00,
2013-07-11 16:07:00,74.0,54.0,-100.00,NE,36,6.0,11.0,50,0.00,,,0.27,727.000000,,2013-07-11 20:07:00,
2013-07-11 16:50:00,71.0,54.0,-100.00,NE,38,5.0,11.0,54,0.00,,,0.27,417.000000,,2013-07-11 20:50:00,
2013-07-11 16:56:00,71.0,54.0,-100.00,NE,38,5.0,11.0,54,0.00,,,0.27,417.000000,,2013-07-11 20:56:00,
2013-07-11 17:06:00,71.0,54.0,-100.00,NE,38,5.0,11.0,54,0.00,,,0.27,417.000000,,2013-07-11 21:06:00,
2013-07-11 17:15:00,71.0,54.0,-100.00,NE,38,5.0,11.0,54,0.00,,,0.27,417.000000,,2013-07-11 21:15:00,
2013-07-11 17:16:00,73.0,52.0,-100.00,NNE,31,5.0,9.0,47,0.00,,,0.27,448.000000,,2013-07-11 21:16:00,
2013-07-11 17:46:00,73.0,52.0,-100.00,NNE,31,5.0,9.0,47,0.00,,,0.27,448.000000,,2013-07-11 21:46:00,
2013-07-11 18:06:00,73.0,52.0,-100.00,NNE,31,5.0,9.0,47,0.00,,,0.27,448.000000,,2013-07-11 22:06:00,
2013-07-11 18:49:00,74.0,55.0,-100.00,NNE,26,5.0,10.0,52,0.00,,,0.27,297.000000,,2013-07-11 22:49:00,
2013-07-11 18:55:00,74.0,55.0,-100.00,NNE,26,5.0,10.0,52,0.00,,,0.27,297.000000,,2013-07-11 22:55:00,
2013-07-11 19:06:00,74.0,55.0,-100.00,NNE,26,5.0,10.0,52,0.00,,,0.27,297.000000,,2013-07-11 23:06:00,
2013-07-11 19:14:00,74.0,55.0,-100.00,NNE,26,5.0,10.0,52,0.00,,,0.27,297.000000,,2013-07-11 23:14:00,
2013-07-11 19:47:00,67.0,54.0,-100.00,NE,39,5.0,9.0,62,0.00,,,0.27,93.000000,,2013-07-11 23:47:00,
2013-07-11 20:00:00,67.0,54.0,-100.00,NE,39,5.0,9.0,62,0.00,,,0.27,93.000000,,2013-07-12 00:00:00,
2013-07-11 20:06:00,67.0,54.0,-100.00,NE,39,5.0,9.0,62,0.00,,,0.27,93.000000,,2013-07-12 00:06:00,
2013-07-11 20:15:00,67.0,54.0,-100.00,NE,39,5.0,9.0,62,0.00,,,0.27,93.000000,,2013-07-12 00:15:00,
2013-07-11 20:46:00,65.0,54.0,-100.00,NE,41,5.0,9.0,67,0.00,,,0.16,59.000000,,2013-07-12 00:46:00,
2013-07-11 20:58:00,65.0,54.0,-100.00,NE,41,5.0,9.0,67,0.00,,,0.16,59.000000,,2013-07-12 00:58:00,
2013-07-11 21:05:00,65.0,54.0,-100.00,NE,41,5.0,9.0,67,0.00,,,0.16,59.000000,,2013-07-12 01:05:00,
2013-07-11 21:14:00,65.0,54.0,-100.00,NE,41,5.0,9.0,67,0.00,,,0.16,59.000000,,2013-07-12 01:14:00,
2013-07-11 21:49:00,62.0,54.0,-100.00,NNE,32,4.0,11.0,75,0.00,,,0.03,5.000000,,2013-07-12 01:49:00,
2013-07-11 22:46:00,62.0,54.0,-100.00,NE,35,6.0,9.0,76,0.00,,,0.01,0.000000,,2013-07-12 02:46:00,
2013-07-11 22:55:00,62.0,54.0,-100.00,NE,35,6.0,9.0,76,0.00,,,0.01,0.000000,,2013-07-12 02:55:00,
2013-07-11 23:04:00,62.0,54.0,-100.00,NE,35,6.0,9.0,76,0.00,,,0.01,0.000000,,2013-07-12 03:04:00,
2013-07-11 23:14:00,62.0,54.0,-100.00,NE,35,6.0,9.0,76,0.00,,,0.01,0.000000,,2013-07-12 03:14:00,
2013-07-11 23:57:00,61.0,54.0,-100.00,NE,49,6.0,11.0,77,0.00,,,0.01,0.000000,,2013-07-12 03:57:00,